createdAt,value
2018-11-29T00:02:01.678Z,101615.28
2018-11-29T00:04:29.379Z,101621.49
2018-11-29T00:06:57.033Z,101624.31
2018-11-29T00:09:24.669Z,101613.89
2018-11-29T00:11:52.303Z,101607.42
2018-11-29T00:14:19.914Z,101607.52
2018-11-29T00:16:47.568Z,101609.63
2018-11-29T00:19:15.192Z,101608.89
2018-11-29T00:21:42.811Z,101618.58
2018-11-29T00:24:10.450Z,101603.15
2018-11-29T00:26:38.079Z,101588.59
2018-11-29T00:29:05.733Z,101600.81
2018-11-29T00:31:33.377Z,101606.48
2018-11-29T00:34:01.055Z,101590.70
2018-11-29T00:36:28.691Z,101597.64
2018-11-29T00:38:56.365Z,101600.95
2018-11-29T00:41:23.964Z,101605.10
2018-11-29T00:43:51.559Z,101605.34
2018-11-29T00:46:19.162Z,101600.97
2018-11-29T00:48:47.803Z,101605.00
2018-11-29T00:51:15.471Z,101603.95
2018-11-29T00:53:43.127Z,101594.50
2018-11-29T00:56:10.748Z,101590.27
2018-11-29T00:58:38.395Z,101588.98
2018-11-29T01:01:06.083Z,101592.47
2018-11-29T01:03:33.761Z,101587.45
2018-11-29T01:06:01.400Z,101588.20
2018-11-29T01:08:29.038Z,101584.33
2018-11-29T01:10:56.731Z,101573.23
2018-11-29T01:13:24.446Z,101572.80
2018-11-29T01:15:52.123Z,101567.02
2018-11-29T01:18:19.738Z,101566.63
2018-11-29T01:20:47.454Z,101568.63
2018-11-29T01:23:15.186Z,101557.56
2018-11-29T01:25:42.857Z,101554.57
2018-11-29T01:28:10.502Z,101554.23
2018-11-29T01:30:38.208Z,101546.23
2018-11-29T01:33:05.889Z,101545.36
2018-11-29T01:35:33.795Z,101542.50
2018-11-29T01:38:01.461Z,101536.09
2018-11-29T01:40:29.130Z,101541.98
2018-11-29T01:42:57.204Z,101534.45
2018-11-29T01:45:25.326Z,101529.81
2018-11-29T01:47:52.999Z,101527.64
2018-11-29T01:50:21.205Z,101522.45
2018-11-29T01:52:48.906Z,101527.77
2018-11-29T01:55:16.565Z,101525.69
2018-11-29T01:57:44.240Z,101512.55
2018-11-29T02:00:14.682Z,101512.97
2018-11-29T02:02:42.654Z,101510.67
2018-11-29T02:05:11.040Z,101503.40
2018-11-29T02:07:38.741Z,101507.55
2018-11-29T02:10:14.789Z,101502.42
2018-11-29T02:12:42.503Z,101510.60
2018-11-29T02:15:10.257Z,101498.45
2018-11-29T02:17:37.950Z,101499.41
2018-11-29T02:20:07.927Z,101496.80
2018-11-29T02:22:35.703Z,101488.58
2018-11-29T02:25:03.430Z,101481.66
2018-11-29T02:27:31.066Z,101479.14
2018-11-29T02:29:58.749Z,101478.30
2018-11-29T02:32:26.451Z,101476.23
2018-11-29T02:34:54.126Z,101469.33
2018-11-29T02:37:21.781Z,101467.00
2018-11-29T02:39:49.476Z,101461.86
2018-11-29T02:42:17.107Z,101478.45
2018-11-29T02:44:44.741Z,101466.43
2018-11-29T02:47:12.383Z,101466.05
2018-11-29T02:49:40.061Z,101449.09
2018-11-29T02:52:07.744Z,101456.51
2018-11-29T02:54:35.438Z,101443.80
2018-11-29T02:57:03.121Z,101440.89
2018-11-29T02:59:30.763Z,101437.61
2018-11-29T03:01:58.421Z,101422.88
2018-11-29T03:04:26.097Z,101418.61
2018-11-29T03:06:53.727Z,101407.48
2018-11-29T03:09:21.409Z,101409.34
2018-11-29T03:11:49.056Z,101398.58
2018-11-29T03:14:16.708Z,101401.43
2018-11-29T03:16:44.329Z,101392.00
2018-11-29T03:19:12.015Z,101383.03
2018-11-29T03:21:39.740Z,101377.92
2018-11-29T03:24:07.391Z,101375.92
2018-11-29T03:26:35.091Z,101364.27
2018-11-29T03:29:02.823Z,101365.46
2018-11-29T03:31:30.525Z,101351.66
2018-11-29T03:33:58.182Z,101347.39
2018-11-29T03:36:25.891Z,101349.57
2018-11-29T03:38:53.584Z,101336.23
2018-11-29T03:41:21.279Z,101332.73
2018-11-29T03:43:48.923Z,101315.60
2018-11-29T03:46:16.550Z,101309.70
2018-11-29T03:48:44.218Z,101309.77
2018-11-29T03:51:12.894Z,101311.07
2018-11-29T03:53:40.558Z,101293.84
2018-11-29T03:56:08.211Z,101285.20
2018-11-29T03:58:35.929Z,101280.60
2018-11-29T04:01:03.969Z,101287.69
2018-11-29T04:03:31.662Z,101269.94
2018-11-29T04:05:59.360Z,101265.23
2018-11-29T04:08:27.022Z,101260.50
2018-11-29T04:10:54.766Z,101254.06
2018-11-29T04:13:22.428Z,101250.58
2018-11-29T04:15:50.143Z,101259.27
2018-11-29T04:18:17.819Z,101262.31
2018-11-29T04:20:45.498Z,101251.89
2018-11-29T04:23:13.359Z,101251.92
2018-11-29T04:25:41.074Z,101242.77
2018-11-29T04:28:09.018Z,101242.34
2018-11-29T04:30:36.747Z,101231.05
2018-11-29T04:33:04.561Z,101226.67
2018-11-29T04:35:32.241Z,101224.48
2018-11-29T04:37:59.918Z,101217.99
2018-11-29T04:40:27.569Z,101192.30
2018-11-29T04:42:55.271Z,101203.59
2018-11-29T04:45:22.939Z,101202.73
2018-11-29T04:47:50.747Z,101194.03
2018-11-29T04:50:18.501Z,101195.78
2018-11-29T04:52:46.224Z,101187.09
2018-11-29T04:55:13.943Z,101187.95
2018-11-29T04:57:41.654Z,101174.02
2018-11-29T05:00:11.334Z,101170.53
2018-11-29T05:02:39.038Z,101180.56
2018-11-29T05:05:07.215Z,101158.77
2018-11-29T05:07:34.928Z,101167.44
2018-11-29T05:10:02.659Z,101151.76
2018-11-29T05:12:30.315Z,101156.94
2018-11-29T05:14:57.978Z,101144.80
2018-11-29T05:17:25.634Z,101149.12
2018-11-29T05:19:53.296Z,101137.84
2018-11-29T05:22:21.010Z,101136.52
2018-11-29T05:24:48.684Z,101129.08
2018-11-29T05:27:16.387Z,101122.53
2018-11-29T05:29:44.012Z,101125.51
2018-11-29T05:32:11.696Z,101128.59
2018-11-29T05:34:39.544Z,101126.41
2018-11-29T05:37:07.244Z,101117.66
2018-11-29T05:39:34.923Z,101115.91
2018-11-29T05:42:02.619Z,101091.05
2018-11-29T05:44:30.273Z,101101.05
2018-11-29T05:46:57.967Z,101101.91
2018-11-29T05:49:25.603Z,101094.91
2018-11-29T05:51:53.346Z,101102.32
2018-11-29T05:54:20.974Z,101085.30
2018-11-29T05:56:48.680Z,101092.27
2018-11-29T05:59:16.386Z,101101.04
2018-11-29T06:01:44.770Z,101080.08
2018-11-29T06:04:12.475Z,101071.34
2018-11-29T06:06:40.187Z,101074.80
2018-11-29T06:09:09.722Z,101056.97
2018-11-29T06:11:38.197Z,101054.78
2018-11-29T06:14:06.969Z,101032.14
2018-11-29T06:16:35.265Z,101024.29
2018-11-29T06:19:03.003Z,101041.69
2018-11-29T06:21:30.687Z,101027.73
2018-11-29T06:23:58.366Z,101020.72
2018-11-29T06:26:26.033Z,101023.39
2018-11-29T06:28:53.725Z,101031.27
2018-11-29T06:31:21.443Z,101007.77
2018-11-29T06:33:49.119Z,100981.55
2018-11-29T06:36:16.846Z,101013.32
2018-11-29T06:38:44.601Z,101007.25
2018-11-29T06:41:12.275Z,101009.43
2018-11-29T06:43:39.951Z,101003.73
2018-11-29T06:46:08.546Z,100995.89
2018-11-29T06:48:36.267Z,100992.84
2018-11-29T06:51:03.926Z,100995.48
2018-11-29T06:53:37.086Z,100994.13
2018-11-29T06:56:04.821Z,101005.86
2018-11-29T06:58:32.495Z,101001.03
2018-11-29T07:01:00.235Z,100993.25
2018-11-29T07:03:28.909Z,101003.77
2018-11-29T07:05:55.655Z,100985.46
2018-11-29T07:08:23.317Z,101008.99
2018-11-29T07:10:51.050Z,101002.89
2018-11-29T07:13:18.944Z,100992.81
2018-11-29T07:15:46.615Z,100984.53
2018-11-29T07:18:14.306Z,100968.04
2018-11-29T07:20:46.483Z,100969.75
2018-11-29T07:23:14.142Z,100988.48
2018-11-29T07:25:41.792Z,100969.72
2018-11-29T07:28:09.502Z,100960.57
2018-11-29T07:30:37.139Z,100958.36
2018-11-29T07:33:05.164Z,100966.58
2018-11-29T07:35:32.881Z,100970.94
2018-11-29T07:38:00.570Z,100953.56
2018-11-29T07:40:28.254Z,100974.05
2018-11-29T07:42:56.548Z,100963.59
2018-11-29T07:45:24.210Z,100968.79
2018-11-29T07:47:51.901Z,100959.66
2018-11-29T07:50:20.895Z,100957.95
2018-11-29T07:52:48.761Z,100948.37
2018-11-29T07:55:18.496Z,100962.28
2018-11-29T07:57:47.201Z,100955.28
2018-11-29T08:00:15.649Z,100958.77
2018-11-29T08:02:43.401Z,100941.83
2018-11-29T08:05:12.337Z,100951.79
2018-11-29T08:07:41.104Z,100917.30
2018-11-29T08:10:12.094Z,100914.24
2018-11-29T08:12:39.735Z,100913.38
2018-11-29T08:15:09.998Z,100903.78
2018-11-29T08:17:37.675Z,100918.64
2018-11-29T08:20:09.055Z,100902.52
2018-11-29T08:22:36.685Z,100895.54
2018-11-29T08:25:04.711Z,100909.41
2018-11-29T08:27:32.346Z,100911.16
2018-11-29T08:29:59.985Z,100902.00
2018-11-29T08:32:27.593Z,100905.05
2018-11-29T08:34:55.270Z,100897.17
2018-11-29T08:37:22.913Z,100896.73
2018-11-29T08:39:50.538Z,100904.55
2018-11-29T08:42:18.163Z,100883.70
2018-11-29T08:44:45.787Z,100893.65
2018-11-29T08:47:13.462Z,100870.08
2018-11-29T08:49:41.121Z,100874.83
2018-11-29T08:52:08.755Z,100850.37
2018-11-29T08:54:36.398Z,100880.05
2018-11-29T08:57:04.011Z,100861.67
2018-11-29T08:59:31.667Z,100836.86
2018-11-29T09:01:59.313Z,100846.50
2018-11-29T09:04:26.974Z,100830.80
2018-11-29T09:06:54.640Z,100824.30
2018-11-29T09:09:22.281Z,100839.12
2018-11-29T09:11:49.908Z,100846.48
2018-11-29T09:14:17.564Z,100831.16
2018-11-29T09:16:45.210Z,100819.77
2018-11-29T09:19:12.843Z,100818.86
2018-11-29T09:21:40.511Z,100809.30
2018-11-29T09:24:08.162Z,100798.02
2018-11-29T09:26:35.824Z,100793.27
2018-11-29T09:29:03.495Z,100785.42
2018-11-29T09:31:31.173Z,100766.97
2018-11-29T09:33:58.811Z,100789.64
2018-11-29T09:36:26.437Z,100785.77
2018-11-29T09:38:54.303Z,100776.17
2018-11-29T09:41:21.962Z,100761.78
2018-11-29T09:43:49.621Z,100787.06
2018-11-29T09:46:17.295Z,100781.88
2018-11-29T09:48:44.936Z,100767.88
2018-11-29T09:51:12.560Z,100764.79
2018-11-29T09:53:40.244Z,100723.85
2018-11-29T09:56:07.877Z,100728.65
2018-11-29T09:58:35.538Z,100744.00
2018-11-29T10:01:03.178Z,100712.52
2018-11-29T10:03:30.833Z,100711.11
2018-11-29T10:05:58.471Z,100706.36
2018-11-29T10:08:26.285Z,100713.78
2018-11-29T10:10:53.898Z,100705.05
2018-11-29T10:13:21.527Z,100702.44
2018-11-29T10:15:49.178Z,100690.71
2018-11-29T10:18:16.826Z,100690.28
2018-11-29T10:20:44.535Z,100694.16
2018-11-29T10:23:12.213Z,100692.02
2018-11-29T10:25:40.731Z,100679.81
2018-11-29T10:28:14.651Z,100672.36
2018-11-29T10:30:55.120Z,100670.66
2018-11-29T10:33:22.760Z,100635.30
2018-11-29T10:35:50.395Z,100662.33
2018-11-29T10:38:18.047Z,100681.95
2018-11-29T10:40:45.683Z,100663.25
2018-11-29T10:43:13.315Z,100610.05
2018-11-29T10:45:40.999Z,100661.02
2018-11-29T10:48:11.340Z,100664.95
2018-11-29T10:50:39.019Z,100648.48
2018-11-29T10:53:07.780Z,100654.97
2018-11-29T10:55:35.436Z,100646.24
2018-11-29T10:58:03.083Z,100623.58
2018-11-29T11:00:36.397Z,100630.06
2018-11-29T11:03:10.787Z,100639.26
2018-11-29T11:05:38.508Z,100663.69
2018-11-29T11:08:08.620Z,100653.17
2018-11-29T11:10:35.592Z,100648.44
2018-11-29T11:13:03.365Z,100643.67
2018-11-29T11:15:31.022Z,100633.61
2018-11-29T11:17:58.723Z,100630.55
2018-11-29T11:20:26.404Z,100658.89
2018-11-29T11:22:54.111Z,100663.68
2018-11-29T11:25:21.804Z,100663.68
2018-11-29T11:27:49.492Z,100662.86
2018-11-29T11:30:19.390Z,100658.89
2018-11-29T11:32:48.186Z,100636.66
2018-11-29T11:35:15.911Z,100631.86
2018-11-29T11:37:43.776Z,100630.59
2018-11-29T11:40:13.591Z,100634.52
2018-11-29T11:42:41.284Z,100647.22
2018-11-29T11:45:13.368Z,100646.06
2018-11-29T11:47:41.851Z,100633.44
2018-11-29T11:50:13.138Z,100628.25
2018-11-29T11:52:40.864Z,100639.10
2018-11-29T11:55:09.141Z,100637.45
2018-11-29T11:57:36.815Z,100631.02
2018-11-29T12:00:12.779Z,100640.22
2018-11-29T12:02:40.440Z,100627.67
2018-11-29T12:05:08.995Z,100618.64
2018-11-29T12:07:36.716Z,100627.88
2018-11-29T12:10:04.959Z,100634.84
2018-11-29T12:12:32.637Z,100617.03
2018-11-29T12:15:00.319Z,100622.83
2018-11-29T12:17:27.951Z,100612.86
2018-11-29T12:19:55.615Z,100615.95
2018-11-29T12:22:23.287Z,100601.62
2018-11-29T12:24:51.006Z,100593.41
2018-11-29T12:27:18.657Z,100596.02
2018-11-29T12:29:46.338Z,100571.24
2018-11-29T12:32:14.031Z,100555.61
2018-11-29T12:34:41.780Z,100565.63
2018-11-29T12:37:09.452Z,100570.85
2018-11-29T12:39:37.117Z,100562.19
2018-11-29T12:42:04.895Z,100542.59
2018-11-29T12:44:32.559Z,100568.28
2018-11-29T12:47:00.252Z,100569.16
2018-11-29T12:49:27.915Z,100582.17
2018-11-29T12:51:55.601Z,100574.77
2018-11-29T12:54:23.258Z,100562.54
2018-11-29T12:56:50.931Z,100559.93
2018-11-29T12:59:18.648Z,100566.06
2018-11-29T13:01:46.363Z,100556.44
2018-11-29T13:04:14.017Z,100555.09
2018-11-29T13:06:41.675Z,100560.31
2018-11-29T13:09:09.979Z,100550.68
2018-11-29T13:11:37.691Z,100547.59
2018-11-29T13:14:05.841Z,100559.35
2018-11-29T13:16:33.623Z,100568.02
2018-11-29T13:19:01.292Z,100569.75
2018-11-29T13:21:28.973Z,100563.16
2018-11-29T13:24:00.181Z,100544.83
2018-11-29T13:26:24.417Z,100536.11
2018-11-29T13:28:52.103Z,100543.03
2018-11-29T13:31:19.774Z,100547.00
2018-11-29T13:33:47.734Z,100555.23
2018-11-29T13:36:15.359Z,100545.16
2018-11-29T13:38:43.048Z,100545.49
2018-11-29T13:41:10.717Z,100554.20
2018-11-29T13:43:38.409Z,100543.20
2018-11-29T13:46:06.295Z,100535.74
2018-11-29T13:48:34.028Z,100539.19
2018-11-29T13:51:01.713Z,100521.75
2018-11-29T13:53:29.447Z,100533.95
2018-11-29T13:55:57.109Z,100542.17
2018-11-29T13:58:24.792Z,100541.84
2018-11-29T14:00:52.446Z,100539.61
2018-11-29T14:03:20.095Z,100524.27
2018-11-29T14:05:47.779Z,100535.16
2018-11-29T14:08:15.448Z,100533.02
2018-11-29T14:10:43.481Z,100542.61
2018-11-29T14:13:11.241Z,100544.30
2018-11-29T14:15:39.060Z,100524.70
2018-11-29T14:18:07.161Z,100533.80
2018-11-29T14:20:35.530Z,100541.59
2018-11-29T14:23:02.746Z,100528.87
2018-11-29T14:25:30.412Z,100531.94
2018-11-29T14:27:58.110Z,100537.21
2018-11-29T14:30:28.355Z,100528.94
2018-11-29T14:32:58.215Z,100524.52
2018-11-29T14:35:26.003Z,100540.98
2018-11-29T14:37:53.730Z,100536.73
2018-11-29T14:40:23.272Z,100521.05
2018-11-29T14:42:50.995Z,100532.37
2018-11-29T14:45:19.739Z,100537.05
2018-11-29T14:47:47.516Z,100531.39
2018-11-29T14:50:49.487Z,100532.69
2018-11-29T14:53:17.209Z,100514.45
2018-11-29T14:55:44.870Z,100531.87
2018-11-29T14:58:13.248Z,100522.34
2018-11-29T15:00:40.981Z,100525.84
2018-11-29T15:03:11.967Z,100539.39
2018-11-29T15:05:39.743Z,100531.17
2018-11-29T15:08:08.620Z,100537.33
2018-11-29T15:10:37.112Z,100536.50
2018-11-29T15:13:05.549Z,100543.05
2018-11-29T15:15:33.215Z,100529.61
2018-11-29T15:18:00.912Z,100530.91
2018-11-29T15:20:30.835Z,100536.18
2018-11-29T15:22:58.564Z,100535.36
2018-11-29T15:25:27.466Z,100534.50
2018-11-29T15:27:55.290Z,100527.58
2018-11-29T15:30:23.516Z,100523.66
2018-11-29T15:32:51.306Z,100521.05
2018-11-29T15:35:20.803Z,100524.53
2018-11-29T15:37:48.547Z,100518.42
2018-11-29T15:40:17.241Z,100518.87
2018-11-29T15:42:44.997Z,100501.48
2018-11-29T15:45:25.543Z,100523.66
2018-11-29T15:47:53.277Z,100530.19
2018-11-29T15:50:21.060Z,100508.85
2018-11-29T15:52:48.769Z,100502.70
2018-11-29T15:55:21.164Z,100429.95
2018-11-29T15:57:49.623Z,100508.37
2018-11-29T16:00:19.404Z,100507.06
2018-11-29T16:02:47.732Z,100496.20
2018-11-29T16:05:15.471Z,100497.09
2018-11-29T16:07:43.210Z,100491.86
2018-11-29T16:10:12.075Z,100471.83
2018-11-29T16:12:39.938Z,100484.89
2018-11-29T16:15:11.192Z,100478.86
2018-11-29T16:17:38.887Z,100491.05
2018-11-29T16:20:25.754Z,100500.19
2018-11-29T16:22:53.439Z,100501.48
2018-11-29T16:25:21.162Z,100507.92
2018-11-29T16:27:48.911Z,100499.64
2018-11-29T16:30:29.556Z,100499.27
2018-11-29T16:32:59.298Z,100498.41
2018-11-29T16:35:27.053Z,100494.95
2018-11-29T16:37:54.716Z,100501.98
2018-11-29T16:40:22.370Z,100506.44
2018-11-29T16:42:50.023Z,100499.48
2018-11-29T16:45:17.865Z,100517.00
2018-11-29T16:47:45.505Z,100511.02
2018-11-29T16:50:14.587Z,100514.11
2018-11-29T16:52:42.268Z,100519.87
2018-11-29T16:55:10.751Z,100526.02
2018-11-29T16:57:39.722Z,100526.94
2018-11-29T17:00:11.416Z,100526.12
2018-11-29T17:02:39.076Z,100525.63
2018-11-29T17:05:08.191Z,100528.77
2018-11-29T17:07:37.235Z,100537.91
2018-11-29T17:10:07.320Z,100545.36
2018-11-29T17:12:34.972Z,100541.91
2018-11-29T17:15:02.677Z,100545.80
2018-11-29T17:17:30.338Z,100537.91
2018-11-29T17:19:57.999Z,100537.47
2018-11-29T17:22:25.627Z,100540.95
2018-11-29T17:24:53.277Z,100531.33
2018-11-29T17:27:20.951Z,100522.14
2018-11-29T17:29:48.602Z,100520.78
2018-11-29T17:32:16.252Z,100528.63
2018-11-29T17:34:43.968Z,100527.32
2018-11-29T17:37:11.646Z,100537.72
2018-11-29T17:39:39.310Z,100529.06
2018-11-29T17:42:07.198Z,100530.38
2018-11-29T17:44:34.740Z,100524.31
2018-11-29T17:47:02.428Z,100523.41
2018-11-29T17:49:30.259Z,100518.56
2018-11-29T17:51:57.957Z,100501.97
2018-11-29T17:54:25.612Z,100505.88
2018-11-29T17:56:53.408Z,100495.44
2018-11-29T17:59:21.316Z,100490.20
2018-11-29T18:01:49.121Z,100491.47
2018-11-29T18:04:16.823Z,100487.50
2018-11-29T18:06:44.501Z,100493.16
2018-11-29T18:09:12.440Z,100492.67
2018-11-29T18:11:40.174Z,100496.97
2018-11-29T18:14:08.057Z,100489.52
2018-11-29T18:16:35.739Z,100494.78
2018-11-29T18:19:03.414Z,100499.55
2018-11-29T18:21:31.147Z,100491.21
2018-11-29T18:23:58.834Z,100486.41
2018-11-29T18:26:26.488Z,100496.75
2018-11-29T18:28:54.147Z,100486.69
2018-11-29T18:31:21.809Z,100481.08
2018-11-29T18:33:49.556Z,100472.37
2018-11-29T18:36:17.207Z,100471.92
2018-11-29T18:38:44.943Z,100475.41
2018-11-29T18:41:12.648Z,100465.34
2018-11-29T18:43:40.340Z,100463.64
2018-11-29T18:46:08.043Z,100468.44
2018-11-29T18:48:35.695Z,100454.50
2018-11-29T18:51:03.376Z,100469.26
2018-11-29T18:53:32.008Z,100452.17
2018-11-29T18:56:00.602Z,100453.84
2018-11-29T18:58:27.429Z,100441.70
2018-11-29T19:00:55.091Z,100447.74
2018-11-29T19:03:22.803Z,100438.65
2018-11-29T19:05:50.489Z,100436.48
2018-11-29T19:08:18.180Z,100433.11
2018-11-29T19:10:45.885Z,100445.75
2018-11-29T19:13:13.818Z,100455.77
2018-11-29T19:15:41.601Z,100445.75
2018-11-29T19:18:10.826Z,100448.80
2018-11-29T19:20:37.932Z,100429.24
2018-11-29T19:23:05.888Z,100438.81
2018-11-29T19:25:33.644Z,100435.78
2018-11-29T19:28:01.323Z,100446.60
2018-11-29T19:30:29.792Z,100430.92
2018-11-29T19:33:01.025Z,100433.05
2018-11-29T19:35:28.704Z,100424.72
2018-11-29T19:37:56.391Z,100422.48
2018-11-29T19:40:24.238Z,100422.41
2018-11-29T19:42:51.919Z,100419.75
2018-11-29T19:45:19.616Z,100414.95
2018-11-29T19:47:47.554Z,100415.38
2018-11-29T19:50:17.376Z,100413.14
2018-11-29T19:52:46.402Z,100406.59
2018-11-29T19:55:34.117Z,100416.51
2018-11-29T19:58:01.799Z,100413.02
2018-11-29T20:00:29.559Z,100423.04
2018-11-29T20:02:57.351Z,100413.41
2018-11-29T20:05:25.093Z,100413.89
2018-11-29T20:07:53.065Z,100404.31
2018-11-29T20:10:20.794Z,100421.25
2018-11-29T20:12:54.323Z,100413.83
2018-11-29T20:15:22.002Z,100406.59
2018-11-29T20:17:49.767Z,100405.92
2018-11-29T20:20:17.490Z,100421.17
2018-11-29T20:22:45.900Z,100418.94
2018-11-29T20:25:17.520Z,100404.92
2018-11-29T20:27:45.232Z,100398.88
2018-11-29T20:30:15.125Z,100397.16
2018-11-29T20:32:42.953Z,100401.12
2018-11-29T20:35:11.356Z,100399.00
2018-11-29T20:37:39.156Z,100404.11
2018-11-29T20:40:14.832Z,100398.02
2018-11-29T20:42:42.741Z,100405.84
2018-11-29T20:45:16.847Z,100397.95
2018-11-29T20:47:45.249Z,100407.09
2018-11-29T20:50:14.905Z,100403.55
2018-11-29T20:52:42.501Z,100401.36
2018-11-29T20:55:13.830Z,100406.10
2018-11-29T20:57:41.567Z,100395.25
2018-11-29T21:00:12.851Z,100385.86
2018-11-29T21:02:41.017Z,100382.56
2018-11-29T21:05:10.288Z,100370.35
2018-11-29T21:07:37.981Z,100369.84
2018-11-29T21:10:12.719Z,100377.76
2018-11-29T21:12:40.461Z,100378.58
2018-11-29T21:15:08.184Z,100379.88
2018-11-29T21:17:35.831Z,100374.27
2018-11-29T21:20:04.225Z,100382.11
2018-11-29T21:22:31.899Z,100389.03
2018-11-29T21:24:59.543Z,100391.59
2018-11-29T21:27:27.205Z,100385.91
2018-11-29T21:29:54.844Z,100387.65
2018-11-29T21:32:22.536Z,100382.80
2018-11-29T21:34:50.211Z,100383.28
2018-11-29T21:37:17.896Z,100381.98
2018-11-29T21:39:45.570Z,100382.73
2018-11-29T21:42:13.235Z,100374.38
2018-11-29T21:44:40.923Z,100370.07
2018-11-29T21:47:08.610Z,100365.22
2018-11-29T21:49:36.320Z,100365.59
2018-11-29T21:52:04.008Z,100369.58
2018-11-29T21:54:31.643Z,100359.12
2018-11-29T21:56:59.301Z,100360.84
2018-11-29T21:59:26.970Z,100349.52
2018-11-29T22:01:54.659Z,100351.27
2018-11-29T22:04:22.308Z,100350.83
2018-11-29T22:06:49.978Z,100343.84
2018-11-29T22:09:17.689Z,100352.06
2018-11-29T22:11:45.352Z,100342.52
2018-11-29T22:14:13.090Z,100328.97
2018-11-29T22:16:40.759Z,100328.50
2018-11-29T22:19:08.418Z,100317.27
2018-11-29T22:21:36.099Z,100340.16
2018-11-29T22:24:03.858Z,100337.52
2018-11-29T22:26:31.518Z,100338.81
2018-11-29T22:29:00.755Z,100333.88
2018-11-29T22:31:26.919Z,100329.53
2018-11-29T22:33:54.570Z,100333.90
2018-11-29T22:36:22.237Z,100338.73
2018-11-29T22:38:49.923Z,100343.04
2018-11-29T22:41:17.728Z,100339.41
2018-11-29T22:43:45.404Z,100344.56
2018-11-29T22:46:13.081Z,100358.07
2018-11-29T22:48:40.728Z,100341.14
2018-11-29T22:51:08.399Z,100334.16
2018-11-29T22:53:37.059Z,100330.59
2018-11-29T22:56:04.987Z,100327.89
2018-11-29T22:58:32.639Z,100331.33
2018-11-29T23:01:00.389Z,100332.73
2018-11-29T23:03:28.068Z,100324.56
2018-11-29T23:05:55.769Z,100326.11
2018-11-29T23:08:23.487Z,100320.78
2018-11-29T23:10:51.163Z,100311.20
2018-11-29T23:13:18.824Z,100318.66
2018-11-29T23:15:46.544Z,100313.50
2018-11-29T23:18:14.235Z,100307.27
2018-11-29T23:20:41.945Z,100297.22
2018-11-29T23:23:09.648Z,100309.42
2018-11-29T23:25:38.151Z,100311.70
2018-11-29T23:28:06.509Z,100295.97
2018-11-29T23:30:34.220Z,100291.55
2018-11-29T23:33:01.898Z,100305.45
2018-11-29T23:35:29.577Z,100284.56
2018-11-29T23:37:57.238Z,100291.49
2018-11-29T23:40:24.900Z,100283.98
2018-11-29T23:42:52.547Z,100267.89
2018-11-29T23:45:20.210Z,100287.98
2018-11-29T23:47:47.885Z,100289.72
2018-11-29T23:50:18.151Z,100291.81
2018-11-29T23:52:46.144Z,100289.22
2018-11-29T23:55:15.946Z,100290.14
2018-11-29T23:57:43.673Z,100286.22
